createdAt,value
2018-03-08T00:00:26.694Z,1.72
2018-03-08T00:01:54.706Z,1.79
2018-03-08T00:03:20.829Z,1.84
2018-03-08T00:04:49.255Z,1.86
2018-03-08T00:06:16.391Z,1.83
2018-03-08T00:07:43.529Z,1.89
2018-03-08T00:09:10.630Z,1.88
2018-03-08T00:10:37.899Z,1.90
2018-03-08T00:12:04.011Z,1.93
2018-03-08T00:13:31.203Z,1.90
2018-03-08T00:14:58.555Z,1.90
2018-03-08T00:16:25.706Z,1.89
2018-03-08T00:17:53.078Z,1.90
2018-03-08T00:19:20.247Z,1.93
2018-03-08T00:20:48.445Z,1.96
2018-03-08T00:22:15.659Z,2.00
2018-03-08T00:23:41.751Z,2.01
2018-03-08T00:25:08.888Z,1.98
2018-03-08T00:26:37.145Z,1.98
2018-03-08T00:28:04.246Z,1.97
2018-03-08T00:29:30.567Z,1.92
2018-03-08T00:30:57.680Z,1.90
2018-03-08T00:32:25.799Z,1.92
2018-03-08T00:33:53.094Z,1.92
2018-03-08T00:35:19.129Z,1.87
2018-03-08T00:36:47.313Z,1.88
2018-03-08T00:38:13.451Z,1.88
2018-03-08T00:39:40.520Z,1.85
2018-03-08T00:41:07.554Z,1.82
2018-03-08T00:42:35.809Z,1.79
2018-03-08T00:44:01.846Z,1.75
2018-03-08T00:45:28.975Z,1.73
2018-03-08T00:46:57.167Z,1.80
2018-03-08T00:48:23.340Z,1.87
2018-03-08T00:49:51.673Z,1.93
2018-03-08T00:51:18.838Z,1.98
2018-03-08T00:52:45.160Z,1.98
2018-03-08T00:54:13.140Z,1.93
2018-03-08T00:55:39.223Z,1.88
2018-03-08T00:57:06.388Z,1.84
2018-03-08T00:58:33.502Z,1.81
2018-03-08T01:00:00.601Z,1.77
2018-03-08T01:01:27.707Z,1.72
2018-03-08T01:02:55.780Z,1.71
2018-03-08T01:04:22.012Z,1.72
2018-03-08T01:05:50.185Z,1.79
2018-03-08T01:07:16.310Z,1.81
2018-03-08T01:08:43.323Z,1.86
2018-03-08T01:10:10.566Z,1.87
2018-03-08T01:11:38.650Z,1.85
2018-03-08T01:13:04.751Z,1.85
2018-03-08T01:14:32.167Z,1.84
2018-03-08T01:16:00.431Z,1.80
2018-03-08T01:17:26.457Z,1.74
2018-03-08T01:18:53.657Z,1.75
2018-03-08T01:20:21.669Z,1.79
2018-03-08T01:21:47.903Z,1.77
2018-03-08T01:23:15.113Z,1.79
2018-03-08T01:24:42.129Z,1.78
2018-03-08T01:26:09.216Z,1.76
2018-03-08T01:27:37.169Z,1.75
2018-03-08T01:29:03.314Z,1.74
2018-03-08T01:30:31.401Z,1.78
2018-03-08T01:33:25.797Z,1.76
2018-03-08T01:34:52.918Z,1.73
2018-03-08T01:36:19.074Z,1.68
2018-03-08T01:37:46.129Z,1.63
2018-03-08T01:39:13.204Z,1.66
2018-03-08T01:40:41.377Z,1.71
2018-03-08T01:42:08.407Z,1.77
2018-03-08T01:43:34.808Z,1.73
2018-03-08T01:45:01.876Z,1.78
2018-03-08T01:46:30.295Z,1.84
2018-03-08T01:47:57.481Z,1.88
2018-03-08T01:49:24.657Z,1.92
2018-03-08T01:50:51.717Z,1.93
2018-03-08T01:52:18.883Z,1.91
2018-03-08T01:53:44.986Z,1.85
2018-03-08T01:55:12.932Z,1.82
2018-03-08T01:56:39.058Z,1.86
2018-03-08T01:58:07.265Z,1.86
2018-03-08T01:59:33.415Z,1.85
2018-03-08T02:01:00.556Z,1.87
2018-03-08T02:02:27.707Z,1.92
2018-03-08T02:03:54.916Z,1.94
2018-03-08T02:05:21.977Z,1.87
2018-03-08T02:06:50.136Z,1.87
2018-03-08T02:08:16.321Z,1.79
2018-03-08T02:09:44.505Z,1.75
2018-03-08T02:11:11.599Z,1.77
2018-03-08T02:12:38.837Z,1.83
2018-03-08T02:14:05.849Z,1.87
2018-03-08T02:15:32.021Z,1.86
2018-03-08T02:16:59.111Z,1.90
2018-03-08T02:18:27.319Z,1.94
2018-03-08T02:19:54.590Z,1.98
2018-03-08T02:21:21.889Z,1.99
2018-03-08T02:22:48.018Z,2.01
2018-03-08T02:24:15.237Z,1.99
2018-03-08T02:25:43.454Z,1.96
2018-03-08T02:27:09.746Z,1.92
2018-03-08T02:28:37.770Z,1.90
2018-03-08T02:30:03.970Z,1.86
2018-03-08T02:31:32.179Z,1.82
2018-03-08T02:32:58.274Z,1.84
2018-03-08T02:34:25.389Z,1.79
2018-03-08T02:35:53.641Z,1.82
2018-03-08T02:37:20.816Z,1.82
2018-03-08T02:38:46.858Z,1.87
2018-03-08T02:40:14.054Z,1.92
2018-03-08T02:41:41.188Z,1.98
2018-03-08T02:43:09.130Z,2.03
2018-03-08T02:44:36.322Z,2.04
2018-03-08T02:46:02.494Z,2.05
2018-03-08T02:47:30.775Z,2.08
2018-03-08T02:48:57.013Z,2.11
2018-03-08T02:50:24.190Z,2.12
2018-03-08T02:51:52.393Z,2.12
2018-03-08T02:53:18.578Z,2.15
2018-03-08T02:54:46.812Z,2.16
2018-03-08T02:56:13.928Z,2.19
2018-03-08T02:57:39.993Z,2.19
2018-03-08T02:59:06.951Z,2.21
2018-03-08T03:00:34.266Z,2.23
2018-03-08T03:02:01.439Z,2.25
2018-03-08T03:03:28.500Z,2.27
2018-03-08T03:04:55.772Z,2.28
2018-03-08T03:06:23.879Z,2.29
2018-03-08T03:07:50.010Z,2.30
2018-03-08T03:09:17.119Z,2.32
2018-03-08T03:10:44.281Z,2.33
2018-03-08T03:12:11.591Z,2.34
2018-03-08T03:13:38.617Z,2.34
2018-03-08T03:15:06.817Z,2.34
2018-03-08T03:16:32.901Z,2.35
2018-03-08T03:18:00.013Z,2.34
2018-03-08T03:19:27.225Z,2.36
2018-03-08T03:20:54.516Z,2.32
2018-03-08T03:22:22.359Z,2.32
2018-03-08T03:23:49.545Z,2.33
2018-03-08T03:25:16.635Z,2.33
2018-03-08T03:26:42.862Z,2.33
2018-03-08T03:28:11.013Z,2.34
2018-03-08T03:29:38.176Z,2.36
2018-03-08T03:31:05.583Z,2.36
2018-03-08T03:32:31.688Z,2.37
2018-03-08T03:33:59.810Z,2.38
2018-03-08T03:35:25.922Z,2.38
2018-03-08T03:36:52.911Z,2.39
2018-03-08T03:38:21.127Z,2.39
2018-03-08T03:39:47.358Z,2.39
2018-03-08T03:41:14.382Z,2.39
2018-03-08T03:42:42.615Z,2.38
2018-03-08T03:44:09.682Z,2.39
2018-03-08T03:45:35.863Z,2.39
2018-03-08T03:47:03.026Z,2.39
2018-03-08T03:48:30.239Z,2.40
2018-03-08T03:49:58.539Z,2.41
2018-03-08T03:51:25.690Z,2.41
2018-03-08T03:52:51.906Z,2.41
2018-03-08T03:54:19.060Z,2.42
2018-03-08T03:55:46.282Z,2.42
2018-03-08T03:57:13.238Z,2.43
2018-03-08T03:58:40.610Z,2.44
2018-03-08T04:00:08.800Z,2.43
2018-03-08T04:01:34.917Z,2.42
2018-03-08T04:03:02.060Z,2.41
2018-03-08T04:04:29.174Z,2.41
2018-03-08T04:05:56.321Z,2.41
2018-03-08T04:07:24.492Z,2.40
2018-03-08T04:08:51.734Z,2.39
2018-03-08T04:10:18.881Z,2.38
2018-03-08T04:11:45.010Z,2.38
2018-03-08T04:13:13.312Z,2.38
2018-03-08T04:14:39.229Z,2.36
2018-03-08T04:16:06.281Z,2.36
2018-03-08T04:17:34.604Z,2.36
2018-03-08T04:19:01.738Z,2.36
2018-03-08T04:20:27.880Z,2.36
2018-03-08T04:21:55.007Z,2.36
2018-03-08T04:23:22.168Z,2.36
2018-03-08T04:24:49.158Z,2.35
2018-03-08T04:26:16.400Z,2.35
2018-03-08T04:27:43.678Z,2.35
2018-03-08T04:29:10.662Z,2.36
2018-03-08T04:30:37.825Z,2.36
2018-03-08T04:32:05.023Z,2.36
2018-03-08T04:33:32.257Z,2.37
2018-03-08T04:34:59.378Z,2.37
2018-03-08T04:36:27.504Z,2.37
2018-03-08T04:37:53.677Z,2.37
2018-03-08T04:39:20.852Z,2.36
2018-03-08T04:40:49.102Z,2.34
2018-03-08T04:42:16.085Z,2.34
2018-03-08T04:43:42.256Z,2.34
2018-03-08T04:45:09.422Z,2.34
2018-03-08T04:46:36.529Z,2.34
2018-03-08T04:48:03.750Z,2.35
2018-03-08T04:49:31.089Z,2.36
2018-03-08T04:50:59.034Z,2.36
2018-03-08T04:52:25.122Z,2.36
2018-03-08T04:53:53.248Z,2.35
2018-03-08T04:55:20.525Z,2.34
2018-03-08T04:56:47.624Z,2.34
2018-03-08T04:58:14.785Z,2.33
2018-03-08T04:59:40.992Z,2.33
2018-03-08T05:01:09.181Z,2.32
2018-03-08T05:02:36.132Z,2.31
2018-03-08T05:04:02.306Z,2.31
2018-03-08T05:05:29.520Z,2.30
2018-03-08T05:06:56.817Z,2.31
2018-03-08T05:08:24.032Z,2.31
2018-03-08T05:09:52.317Z,2.31
2018-03-08T05:11:19.373Z,2.30
2018-03-08T05:12:45.477Z,2.30
2018-03-08T05:14:13.624Z,2.31
2018-03-08T05:15:40.841Z,2.32
2018-03-08T05:17:06.880Z,2.30
2018-03-08T05:18:34.018Z,2.29
2018-03-08T05:20:01.118Z,2.29
2018-03-08T05:21:28.628Z,2.28
2018-03-08T05:22:56.877Z,2.29
2018-03-08T05:24:22.787Z,2.27
2018-03-08T05:25:49.989Z,2.27
2018-03-08T05:27:18.102Z,2.27
2018-03-08T05:28:44.257Z,2.29
2018-03-08T05:30:11.441Z,2.28
2018-03-08T05:31:39.571Z,2.29
2018-03-08T05:33:06.830Z,2.28
2018-03-08T05:34:34.163Z,2.29
2018-03-08T05:36:00.171Z,2.29
2018-03-08T05:37:27.525Z,2.30
2018-03-08T05:38:55.628Z,2.30
2018-03-08T05:40:21.614Z,2.30
2018-03-08T05:41:48.873Z,2.30
2018-03-08T05:43:17.136Z,2.31
2018-03-08T05:44:43.487Z,2.32
2018-03-08T05:46:10.433Z,2.34
2018-03-08T05:47:38.519Z,2.35
2018-03-08T05:49:05.875Z,2.34
2018-03-08T05:50:32.024Z,2.34
2018-03-08T05:51:59.198Z,2.35
2018-03-08T05:53:26.500Z,2.35
2018-03-08T05:54:54.649Z,2.36
2018-03-08T05:56:21.766Z,2.37
2018-03-08T05:57:48.123Z,2.38
2018-03-08T05:59:15.349Z,2.38
2018-03-08T06:00:42.382Z,2.39
2018-03-08T06:02:10.439Z,2.38
2018-03-08T06:03:37.266Z,2.39
2018-03-08T06:05:04.537Z,2.39
2018-03-08T06:06:31.641Z,2.40
2018-03-08T06:07:57.753Z,2.39
2018-03-08T06:09:26.177Z,2.39
2018-03-08T06:10:53.275Z,2.38
2018-03-08T06:12:19.471Z,2.38
2018-03-08T06:13:46.453Z,2.37
2018-03-08T06:15:13.750Z,2.37
2018-03-08T06:16:40.919Z,2.38
2018-03-08T06:18:07.731Z,2.39
2018-03-08T06:19:36.019Z,2.39
2018-03-08T06:21:02.205Z,2.40
2018-03-08T06:22:29.580Z,2.40
2018-03-08T06:23:57.783Z,2.41
2018-03-08T06:25:25.015Z,2.41
2018-03-08T06:26:51.224Z,2.41
2018-03-08T06:28:19.364Z,2.42
2018-03-08T06:29:45.439Z,2.43
2018-03-08T06:31:12.578Z,2.43
2018-03-08T06:32:39.681Z,2.44
2018-03-08T06:34:06.765Z,2.44
2018-03-08T06:35:34.023Z,2.42
2018-03-08T06:37:01.281Z,2.42
2018-03-08T06:38:28.343Z,2.41
2018-03-08T06:39:55.528Z,2.38
2018-03-08T06:41:23.796Z,2.37
2018-03-08T06:42:51.021Z,2.38
2018-03-08T06:44:17.014Z,2.39
2018-03-08T06:45:44.235Z,2.41
2018-03-08T06:47:12.266Z,2.43
2018-03-08T06:48:38.297Z,2.45
2018-03-08T06:50:06.645Z,2.47
2018-03-08T06:51:33.607Z,2.47
2018-03-08T06:53:00.796Z,2.46
2018-03-08T06:54:27.067Z,2.45
2018-03-08T06:55:55.189Z,2.45
2018-03-08T06:57:22.345Z,2.44
2018-03-08T06:58:48.508Z,2.45
2018-03-08T07:00:15.896Z,2.46
2018-03-08T07:01:43.904Z,2.46
2018-03-08T07:03:11.037Z,2.47
2018-03-08T07:04:37.177Z,2.46
2018-03-08T07:06:04.269Z,2.46
2018-03-08T07:07:31.467Z,2.46
2018-03-08T07:08:58.705Z,2.48
2018-03-08T07:10:25.930Z,2.52
2018-03-08T07:11:54.290Z,2.55
2018-03-08T07:13:20.362Z,2.56
2018-03-08T07:14:48.638Z,2.56
2018-03-08T07:16:17.736Z,2.59
2018-03-08T07:17:41.931Z,2.63
2018-03-08T07:19:10.273Z,2.67
2018-03-08T07:20:36.052Z,2.71
2018-03-08T07:22:04.251Z,2.73
2018-03-08T07:23:31.334Z,2.74
2018-03-08T07:24:57.387Z,2.76
2018-03-08T07:26:25.550Z,2.77
2018-03-08T07:27:51.867Z,2.80
2018-03-08T07:29:18.935Z,2.78
2018-03-08T07:30:45.982Z,2.73
2018-03-08T07:32:13.290Z,2.75
2018-03-08T07:33:41.489Z,2.78
2018-03-08T07:35:07.716Z,2.81
2018-03-08T07:36:35.879Z,2.83
2018-03-08T07:38:03.069Z,2.83
2018-03-08T07:39:30.144Z,2.82
2018-03-08T07:40:57.352Z,2.84
2018-03-08T07:42:23.474Z,2.87
2018-03-08T07:43:51.564Z,2.88
2018-03-08T07:45:17.899Z,2.90
2018-03-08T07:46:45.193Z,2.91
2018-03-08T07:48:13.152Z,2.91
2018-03-08T07:49:40.253Z,2.92
2018-03-08T07:51:06.347Z,2.92
2018-03-08T07:52:33.548Z,2.90
2018-03-08T07:54:01.520Z,2.89
2018-03-08T07:55:27.812Z,2.84
2018-03-08T07:56:56.108Z,2.83
2018-03-08T07:58:22.146Z,2.83
2018-03-08T07:59:50.263Z,2.83
2018-03-08T08:01:16.375Z,2.83
2018-03-08T08:02:44.578Z,2.83
2018-03-08T08:04:11.514Z,2.83
2018-03-08T08:05:38.603Z,2.80
2018-03-08T08:07:05.703Z,2.78
2018-03-08T08:08:31.812Z,2.80
2018-03-08T08:09:58.984Z,2.80
2018-03-08T08:11:26.259Z,2.82
2018-03-08T08:12:54.333Z,2.83
2018-03-08T08:14:20.333Z,2.84
2018-03-08T08:15:47.656Z,2.84
2018-03-08T08:17:14.952Z,2.85
2018-03-08T08:18:42.151Z,2.86
2018-03-08T08:20:10.325Z,2.88
2018-03-08T08:21:37.107Z,2.87
2018-03-08T08:23:04.438Z,2.89
2018-03-08T08:24:30.545Z,2.90
2018-03-08T08:25:57.762Z,2.91
2018-03-08T08:27:25.889Z,2.93
2018-03-08T08:28:53.047Z,2.95
2018-03-08T08:30:19.251Z,3.00
2018-03-08T08:31:47.550Z,3.03
2018-03-08T08:33:14.794Z,3.06
2018-03-08T08:36:08.131Z,3.14
2018-03-08T08:37:36.523Z,3.15
2018-03-08T08:39:02.681Z,3.16
2018-03-08T08:40:29.901Z,3.17
2018-03-08T08:41:57.112Z,3.20
2018-03-08T08:43:24.313Z,3.23
2018-03-08T08:44:52.565Z,3.25
2018-03-08T08:46:19.616Z,3.26
2018-03-08T08:47:45.805Z,3.30
2018-03-08T08:49:12.777Z,3.31
2018-03-08T08:50:41.127Z,3.32
2018-03-08T08:52:07.182Z,3.34
2018-03-08T08:53:34.314Z,3.34
2018-03-08T08:55:01.451Z,3.36
2018-03-08T08:56:29.574Z,3.36
2018-03-08T08:57:55.732Z,3.38
2018-03-08T08:59:23.067Z,3.38
2018-03-08T09:00:51.162Z,3.37
2018-03-08T09:02:18.135Z,3.35
2018-03-08T09:03:45.444Z,3.32
2018-03-08T09:05:12.835Z,3.31
2018-03-08T09:06:38.840Z,3.32
2018-03-08T09:08:05.895Z,3.31
2018-03-08T09:09:34.261Z,3.30
2018-03-08T09:11:00.465Z,3.29
2018-03-08T09:12:27.647Z,3.27
2018-03-08T09:13:54.719Z,3.25
2018-03-08T09:15:21.954Z,3.23
2018-03-08T09:16:50.175Z,3.20
2018-03-08T09:18:17.373Z,3.20
2018-03-08T09:19:43.563Z,3.21
2018-03-08T09:21:11.619Z,3.24
2018-03-08T09:22:37.727Z,3.27
2018-03-08T09:24:05.000Z,3.30
2018-03-08T09:25:32.156Z,3.32
2018-03-08T09:27:00.202Z,3.34
2018-03-08T09:28:26.407Z,3.38
2018-03-08T09:29:53.562Z,3.41
2018-03-08T09:31:21.757Z,3.41
2018-03-08T09:32:47.924Z,3.41
2018-03-08T09:34:16.044Z,3.43
2018-03-08T09:35:42.394Z,3.47
2018-03-08T09:37:10.444Z,3.51
2018-03-08T09:38:36.428Z,3.55
2018-03-08T09:40:04.503Z,3.58
2018-03-08T09:41:30.798Z,3.60
2018-03-08T09:42:58.162Z,3.63
2018-03-08T09:44:25.415Z,3.63
2018-03-08T09:45:53.564Z,3.62
2018-03-08T09:47:19.781Z,3.61
2018-03-08T09:48:46.813Z,3.62
2018-03-08T09:50:14.083Z,3.62
2018-03-08T09:51:41.231Z,3.61
2018-03-08T09:53:08.516Z,3.60
2018-03-08T09:54:35.443Z,3.61
2018-03-08T09:56:02.864Z,3.61
2018-03-08T09:57:30.983Z,3.62
2018-03-08T09:58:57.228Z,3.63
2018-03-08T10:00:25.503Z,3.63
2018-03-08T10:01:52.750Z,3.61
2018-03-08T10:03:18.908Z,3.61
2018-03-08T10:04:47.180Z,3.63
2018-03-08T10:06:14.251Z,3.65
2018-03-08T10:07:41.414Z,3.67
2018-03-08T10:09:07.546Z,3.69
2018-03-08T10:10:35.900Z,3.69
2018-03-08T10:12:03.114Z,3.71
2018-03-08T10:13:30.381Z,3.74
2018-03-08T10:14:56.477Z,3.78
2018-03-08T10:16:23.695Z,3.82
2018-03-08T10:17:50.863Z,3.85
2018-03-08T10:19:19.072Z,3.88
2018-03-08T10:20:45.393Z,3.92
2018-03-08T10:22:13.778Z,3.95
2018-03-08T10:23:39.936Z,3.98
2018-03-08T10:25:07.118Z,3.99
2018-03-08T10:26:34.417Z,3.99
2018-03-08T10:28:01.540Z,4.00
2018-03-08T10:29:29.778Z,4.01
2018-03-08T10:30:57.156Z,4.01
2018-03-08T10:32:23.201Z,4.01
2018-03-08T10:33:50.378Z,4.00
2018-03-08T10:36:44.582Z,4.00
2018-03-08T10:38:11.802Z,3.98
2018-03-08T10:39:38.958Z,3.97
2018-03-08T10:41:06.140Z,3.96
2018-03-08T10:44:00.528Z,3.94
2018-03-08T10:45:27.638Z,3.94
2018-03-08T10:46:55.001Z,3.93
2018-03-08T10:48:22.230Z,3.93
2018-03-08T10:49:50.515Z,3.92
2018-03-08T10:51:16.628Z,3.92
2018-03-08T10:52:43.626Z,3.91
2018-03-08T10:54:11.960Z,3.91
2018-03-08T10:55:38.186Z,3.90
2018-03-08T10:57:06.537Z,3.90
2018-03-08T10:58:33.699Z,3.89
2018-03-08T10:59:59.961Z,3.87
2018-03-08T11:01:28.254Z,3.84
2018-03-08T11:02:55.491Z,3.82
2018-03-08T11:04:22.709Z,3.81
2018-03-08T11:05:48.843Z,3.78
2018-03-08T11:07:16.060Z,3.75
2018-03-08T11:08:43.167Z,3.72
2018-03-08T11:10:11.347Z,3.71
2018-03-08T11:11:37.512Z,3.70
2018-03-08T11:13:05.914Z,3.72
2018-03-08T11:14:32.275Z,3.72
2018-03-08T11:15:59.461Z,3.73
2018-03-08T11:17:27.671Z,3.70
2018-03-08T11:18:53.829Z,3.71
2018-03-08T11:20:21.887Z,3.72
2018-03-08T11:21:48.385Z,3.74
2018-03-08T11:23:15.535Z,3.73
2018-03-08T11:24:42.749Z,3.72
2018-03-08T11:26:09.998Z,3.71
2018-03-08T11:27:37.182Z,3.69
2018-03-08T11:29:05.329Z,3.68
2018-03-08T11:30:31.326Z,3.69
2018-03-08T11:31:58.621Z,3.71
2018-03-08T11:33:26.824Z,3.72
2018-03-08T11:34:52.993Z,3.73
2018-03-08T11:36:20.192Z,3.75
2018-03-08T11:37:47.790Z,3.77
2018-03-08T11:39:14.587Z,3.78
2018-03-08T11:40:42.760Z,3.80
2018-03-08T11:42:09.996Z,3.82
2018-03-08T11:43:36.214Z,3.83
2018-03-08T11:45:04.366Z,3.84
2018-03-08T11:46:30.689Z,3.84
2018-03-08T11:47:57.812Z,3.85
2018-03-08T11:49:28.006Z,3.84
2018-03-08T11:50:52.081Z,3.78
2018-03-08T11:52:20.097Z,3.79
2018-03-08T11:53:46.493Z,3.82
2018-03-08T11:55:13.686Z,3.84
2018-03-08T11:56:40.911Z,3.85
2018-03-08T11:58:08.131Z,3.86
2018-03-08T11:59:35.532Z,3.90
2018-03-08T12:01:03.693Z,3.93
2018-03-08T12:02:29.858Z,3.95
2018-03-08T12:03:57.118Z,3.97
2018-03-08T12:05:25.246Z,3.98
2018-03-08T12:06:51.386Z,4.00
2018-03-08T12:08:18.540Z,4.02
2018-03-08T12:09:45.933Z,4.03
2018-03-08T12:11:13.073Z,4.04
2018-03-08T12:12:41.278Z,4.05
2018-03-08T12:14:08.392Z,4.07
2018-03-08T12:15:34.712Z,4.09
2018-03-08T12:17:02.828Z,4.11
2018-03-08T12:18:30.183Z,4.13
2018-03-08T12:19:56.301Z,4.14
2018-03-08T12:21:24.608Z,4.15
2018-03-08T12:22:50.882Z,4.17
2018-03-08T12:24:17.887Z,4.18
2018-03-08T12:25:46.227Z,4.20
2018-03-08T12:27:13.515Z,4.22
2018-03-08T12:28:40.564Z,4.21
2018-03-08T12:30:06.625Z,4.18
2018-03-08T12:31:34.663Z,4.17
2018-03-08T12:33:00.918Z,4.20
2018-03-08T12:34:28.216Z,4.22
2018-03-08T12:35:55.246Z,4.24
2018-03-08T12:37:22.385Z,4.27
2018-03-08T12:38:49.578Z,4.31
2018-03-08T12:40:16.482Z,4.35
2018-03-08T12:41:43.632Z,4.39
2018-03-08T12:43:11.021Z,4.43
2018-03-08T12:44:39.075Z,4.47
2018-03-08T12:46:06.154Z,4.50
2018-03-08T12:47:32.457Z,4.52
2018-03-08T12:48:59.594Z,4.55
2018-03-08T12:50:26.912Z,4.54
2018-03-08T12:51:54.267Z,4.54
2018-03-08T12:53:22.454Z,4.58
2018-03-08T12:54:48.348Z,4.61
2018-03-08T12:56:16.504Z,4.65
2018-03-08T12:57:42.738Z,4.67
2018-03-08T12:59:10.964Z,4.71
2018-03-08T13:00:37.016Z,4.72
2018-03-08T13:02:04.227Z,4.75
2018-03-08T13:03:31.485Z,4.76
2018-03-08T13:04:58.611Z,4.77
2018-03-08T13:06:25.705Z,4.79
2018-03-08T13:07:52.875Z,4.78
2018-03-08T13:09:20.976Z,4.78
2018-03-08T13:10:47.038Z,4.78
2018-03-08T13:12:15.296Z,4.78
2018-03-08T13:13:41.627Z,4.77
2018-03-08T13:15:09.784Z,4.76
2018-03-08T13:16:36.101Z,4.77
2018-03-08T13:18:03.426Z,4.77
2018-03-08T13:19:30.528Z,4.77
2018-03-08T13:20:57.573Z,4.78
2018-03-08T13:22:24.784Z,4.79
2018-03-08T13:23:52.068Z,4.80
2018-03-08T13:25:19.351Z,4.82
2018-03-08T13:26:46.583Z,4.83
2018-03-08T13:28:13.858Z,4.85
2018-03-08T13:29:40.920Z,4.86
2018-03-08T13:31:07.970Z,4.86
2018-03-08T13:32:35.356Z,4.86
2018-03-08T13:34:03.613Z,4.87
2018-03-08T13:35:31.030Z,4.88
2018-03-08T13:36:57.133Z,4.87
2018-03-08T13:38:24.159Z,4.89
2018-03-08T13:39:52.233Z,4.90
2018-03-08T13:41:18.578Z,4.92
2018-03-08T13:42:46.826Z,4.93
2018-03-08T13:44:13.895Z,4.95
2018-03-08T13:45:40.009Z,4.97
2018-03-08T13:47:07.087Z,4.99
2018-03-08T13:48:34.200Z,5.02
2018-03-08T13:50:01.659Z,5.04
2018-03-08T13:51:29.826Z,5.05
2018-03-08T13:52:57.068Z,5.06
2018-03-08T13:54:23.269Z,5.07
2018-03-08T13:55:53.610Z,5.08
2018-03-08T13:57:18.661Z,5.09
2018-03-08T13:58:45.878Z,5.12
2018-03-08T14:00:12.198Z,5.13
2018-03-08T14:01:39.396Z,5.14
2018-03-08T14:03:06.546Z,5.15
2018-03-08T14:04:33.723Z,5.18
2018-03-08T14:06:01.980Z,5.20
2018-03-08T14:07:29.284Z,5.21
2018-03-08T14:08:56.583Z,5.21
2018-03-08T14:10:22.393Z,5.22
2018-03-08T14:11:49.756Z,5.25
2018-03-08T14:13:17.091Z,5.28
2018-03-08T14:14:44.327Z,5.32
2018-03-08T14:16:11.471Z,5.36
2018-03-08T14:17:38.599Z,5.41
2018-03-08T14:19:05.808Z,5.43
2018-03-08T14:20:33.175Z,5.48
2018-03-08T14:22:00.271Z,5.55
2018-03-08T14:23:27.395Z,5.59
2018-03-08T14:24:54.725Z,5.62
2018-03-08T14:26:21.805Z,5.64
2018-03-08T14:27:48.852Z,5.69
2018-03-08T14:29:15.983Z,5.77
2018-03-08T14:30:43.168Z,5.84
2018-03-08T14:32:11.354Z,5.89
2018-03-08T14:33:37.374Z,5.94
2018-03-08T14:35:04.471Z,5.98
2018-03-08T14:36:31.810Z,6.01
2018-03-08T14:38:00.198Z,6.03
2018-03-08T14:39:26.559Z,6.06
2018-03-08T14:40:53.914Z,6.10
2018-03-08T14:42:22.002Z,6.12
2018-03-08T14:43:48.140Z,6.14
2018-03-08T14:45:15.050Z,6.14
2018-03-08T14:46:42.204Z,6.17
2018-03-08T14:48:09.479Z,6.18
2018-03-08T14:49:36.560Z,6.19
2018-03-08T14:51:03.917Z,6.21
2018-03-08T14:52:31.177Z,6.21
2018-03-08T14:53:58.461Z,6.21
2018-03-08T14:55:26.762Z,6.19
2018-03-08T14:56:52.908Z,6.17
2018-03-08T14:58:19.837Z,6.15
2018-03-08T14:59:46.469Z,6.12
2018-03-08T15:01:14.624Z,6.10
2018-03-08T15:02:41.523Z,6.09
2018-03-08T15:04:07.500Z,6.07
2018-03-08T15:05:35.780Z,6.07
2018-03-08T15:07:02.806Z,6.07
2018-03-08T15:08:29.255Z,6.07
2018-03-08T15:09:56.369Z,6.07
2018-03-08T15:11:24.517Z,6.07
2018-03-08T15:12:50.828Z,6.05
2018-03-08T15:14:18.960Z,6.03
2018-03-08T15:15:45.175Z,6.02
2018-03-08T15:17:13.435Z,6.01
2018-03-08T15:18:40.655Z,5.99
2018-03-08T15:20:06.649Z,5.98
2018-03-08T15:21:33.887Z,5.98
2018-03-08T15:23:02.190Z,5.98
2018-03-08T15:24:28.522Z,5.99
2018-03-08T15:25:55.885Z,5.99
2018-03-08T15:27:24.424Z,6.00
2018-03-08T15:28:51.550Z,6.00
2018-03-08T15:30:17.650Z,6.00
2018-03-08T15:31:44.903Z,6.00
2018-03-08T15:33:12.060Z,5.99
2018-03-08T15:34:39.202Z,6.00
2018-03-08T15:36:06.431Z,6.00
2018-03-08T15:37:33.782Z,6.00
2018-03-08T15:39:01.059Z,5.99
2018-03-08T15:40:28.373Z,5.99
2018-03-08T15:41:56.672Z,5.99
2018-03-08T15:43:23.045Z,5.98
2018-03-08T15:44:50.320Z,5.98
2018-03-08T15:46:18.488Z,5.97
2018-03-08T15:47:44.819Z,5.97
2018-03-08T15:49:11.927Z,5.96
2018-03-08T15:50:39.211Z,5.94
2018-03-08T15:52:07.600Z,5.93
2018-03-08T15:53:33.914Z,5.91
2018-03-08T15:55:01.109Z,5.90
2018-03-08T15:56:28.244Z,5.89
2018-03-08T15:57:55.512Z,5.88
2018-03-08T15:59:22.698Z,5.87
2018-03-08T16:00:51.108Z,5.85
2018-03-08T16:02:17.337Z,5.84
2018-03-08T16:03:45.739Z,5.82
2018-03-08T16:05:12.871Z,5.80
2018-03-08T16:06:39.078Z,5.78
2018-03-08T16:08:06.080Z,5.77
2018-03-08T16:09:33.358Z,5.75
2018-03-08T16:11:00.568Z,5.73
2018-03-08T16:12:27.805Z,5.71
2018-03-08T16:13:55.053Z,5.69
2018-03-08T16:15:23.316Z,5.67
2018-03-08T16:16:49.534Z,5.64
2018-03-08T16:18:17.874Z,5.63
2018-03-08T16:19:45.101Z,5.60
2018-03-08T16:21:12.196Z,5.58
2018-03-08T16:22:38.276Z,5.56
2018-03-08T16:24:05.267Z,5.52
2018-03-08T16:25:32.597Z,5.47
2018-03-08T16:27:00.665Z,5.43
2018-03-08T16:28:27.913Z,5.40
2018-03-08T16:29:55.023Z,5.38
2018-03-08T16:31:21.330Z,5.37
2018-03-08T16:32:49.461Z,5.36
2018-03-08T16:34:16.698Z,5.33
2018-03-08T16:35:43.981Z,5.30
2018-03-08T16:37:11.233Z,5.26
2018-03-08T16:38:38.357Z,5.22
2018-03-08T16:40:04.583Z,5.20
2018-03-08T16:41:31.742Z,5.16
2018-03-08T16:42:59.972Z,5.14
2018-03-08T16:44:26.236Z,5.11
2018-03-08T16:45:53.376Z,5.06
2018-03-08T16:47:21.720Z,5.03
2018-03-08T16:48:47.746Z,4.99
2018-03-08T16:50:15.073Z,4.94
2018-03-08T16:51:43.298Z,4.89
2018-03-08T16:53:10.430Z,4.86
2018-03-08T16:54:36.500Z,4.82
2018-03-08T16:56:04.853Z,4.78
2018-03-08T16:57:31.021Z,4.70
2018-03-08T16:58:58.155Z,4.64
2018-03-08T17:00:25.311Z,4.59
2018-03-08T17:01:53.393Z,4.54
2018-03-08T17:03:19.632Z,4.53
2018-03-08T17:04:46.924Z,4.52
2018-03-08T17:06:14.310Z,4.51
2018-03-08T17:07:42.548Z,4.50
2018-03-08T17:09:09.870Z,4.48
2018-03-08T17:10:36.010Z,4.46
2018-03-08T17:12:06.259Z,4.41
2018-03-08T17:13:31.502Z,4.37
2018-03-08T17:14:57.790Z,4.35
2018-03-08T17:16:25.809Z,4.33
2018-03-08T17:17:52.011Z,4.31
2018-03-08T17:19:19.379Z,4.30
2018-03-08T17:20:47.662Z,4.30
2018-03-08T17:22:14.794Z,4.29
2018-03-08T17:23:42.000Z,4.29
2018-03-08T17:25:09.239Z,4.28
2018-03-08T17:26:36.546Z,4.29
2018-03-08T17:28:02.708Z,4.31
2018-03-08T17:29:29.872Z,4.32
2018-03-08T17:30:57.179Z,4.33
2018-03-08T17:32:25.289Z,4.34
2018-03-08T17:33:52.437Z,4.34
2018-03-08T17:35:18.656Z,4.36
2018-03-08T17:36:46.733Z,4.35
2018-03-08T17:38:13.003Z,4.36
2018-03-08T17:39:40.170Z,4.33
2018-03-08T17:41:07.322Z,4.32
2018-03-08T17:42:35.419Z,4.29
2018-03-08T17:44:01.475Z,4.31
2018-03-08T17:45:28.691Z,4.30
2018-03-08T17:46:55.228Z,4.31
2018-03-08T17:48:23.296Z,4.33
2018-03-08T17:49:50.158Z,4.32
2018-03-08T17:51:16.276Z,4.30
2018-03-08T17:52:43.417Z,4.27
2018-03-08T17:54:10.520Z,4.27
2018-03-08T17:55:37.747Z,4.31
2018-03-08T17:57:04.829Z,4.33
2018-03-08T17:58:33.180Z,4.37
2018-03-08T17:59:59.299Z,4.41
2018-03-08T18:01:26.610Z,4.45
2018-03-08T18:02:53.944Z,4.49
2018-03-08T18:04:21.265Z,4.52
2018-03-08T18:05:48.479Z,4.56
2018-03-08T18:07:16.742Z,4.60
2018-03-08T18:08:43.847Z,4.61
2018-03-08T18:10:11.089Z,4.64
2018-03-08T18:11:37.261Z,4.67
2018-03-08T18:13:04.464Z,4.70
2018-03-08T18:14:35.859Z,4.71
2018-03-08T18:15:58.985Z,4.72
2018-03-08T18:17:27.279Z,4.74
2018-03-08T18:18:54.658Z,4.77
2018-03-08T18:20:20.912Z,4.79
2018-03-08T18:21:48.158Z,4.80
2018-03-08T18:23:15.457Z,4.81
2018-03-08T18:24:42.673Z,4.82
2018-03-08T18:26:10.006Z,4.83
2018-03-08T18:27:38.090Z,4.84
2018-03-08T18:29:04.313Z,4.85
2018-03-08T18:30:31.544Z,4.86
2018-03-08T18:31:58.697Z,4.87
2018-03-08T18:33:26.920Z,4.87
2018-03-08T18:34:53.272Z,4.87
2018-03-08T18:36:20.566Z,4.86
2018-03-08T18:37:48.607Z,4.84
2018-03-08T18:39:15.760Z,4.82
2018-03-08T18:40:42.887Z,4.81
2018-03-08T18:42:08.916Z,4.79
2018-03-08T18:43:36.333Z,4.76
2018-03-08T18:45:04.554Z,4.76
2018-03-08T18:46:31.538Z,4.75
2018-03-08T18:47:57.626Z,4.72
2018-03-08T18:49:24.825Z,4.70
2018-03-08T18:50:52.218Z,4.69
2018-03-08T18:52:20.515Z,4.68
2018-03-08T18:53:46.564Z,4.68
2018-03-08T18:55:13.701Z,4.67
2018-03-08T18:56:41.006Z,4.67
2018-03-08T18:58:09.124Z,4.66
2018-03-08T18:59:35.330Z,4.65
2018-03-08T19:01:03.717Z,4.66
2018-03-08T19:02:30.919Z,4.65
2018-03-08T19:03:57.184Z,4.66
2018-03-08T19:05:24.458Z,4.65
2018-03-08T19:06:52.327Z,4.60
2018-03-08T19:08:18.476Z,4.58
2018-03-08T19:09:45.642Z,4.57
2018-03-08T19:11:12.837Z,4.59
2018-03-08T19:12:41.000Z,4.62
2018-03-08T19:14:08.233Z,4.65
2018-03-08T19:15:35.465Z,4.67
2018-03-08T19:17:01.773Z,4.70
2018-03-08T19:18:28.784Z,4.71
2018-03-08T19:19:56.080Z,4.71
2018-03-08T19:21:24.191Z,4.72
2018-03-08T19:22:50.376Z,4.73
2018-03-08T19:24:18.588Z,4.74
2018-03-08T19:25:45.879Z,4.74